Impacts TAF Board INFO
FOR SITUATIONAL AWARENESS. NOT TO BE USED FOR FLIGHT PLANNING PURPOSES.
IDs:

KLAS - Las Vegas/McCarran I, NV, US

Issued at 0520 UTC 26 Apr 2018
Updated at 0751 UTC 26 Apr 2018
Potential Impact None Slight Moderate High
Time0656Z 26/08Z 26/09Z 26/10Z 26/11Z 26/12Z 26/13Z 26/14Z 26/15Z 26/16Z 26/17Z 26/18Z 26/19Z 26/20Z>>
Type OBS PRVL PRVL PRVL PRVL PRVL PRVL PRVL PRVL PRVL PRVL PRVL PRVL PRVL
VIS 10 >6 >6 >6 >6 >6 >6 >6 >6 >6 >6 >6 >6 >6
CIG -- -- -- -- -- -- -- -- -- -- -- -- -- --
Cover SCT SCT SCT SCT SCT SCT SCT SCT SCT SCT SCT SCT SCT SCT
FltCat VFR VFR VFR VFR VFR VFR VFR VFR VFR VFR VFR VFR VFR VFR
WX -- -- -- -- -- -- -- -- -- -- -- -- -- --
WDir 310 210 210 210 210 VRB VRB VRB VRB VRB 50 50 50 50
WSpd 4 7 7 7 7 5 5 5 5 5 5 5 5 5
WGst -- -- -- -- -- -- -- -- -- -- -- -- -- --

Raw TAF
KLAS 260520Z 2606/2712 21007KT P6SM FEW130 SCT250
  FM261200 VRB05KT P6SM FEW130 SCT250
  FM261700 05005KT P6SM FEW130 SCT250
  FM270300 21010KT P6SM SCT250


Raw METAR
KLAS 260656Z 31004KT 10SM FEW140 SCT200 26/M04 A2990 RMK AO2 SLP101 T02611039
KLAS 260556Z 23004KT 10SM FEW130 SCT200 28/M03 A2991 RMK AO2 SLP104 T02781028 10339 20278 50002
KLAS 260456Z 26003KT 10SM FEW130 SCT180 BKN250 29/M04 A2992 RMK AO2 SLP107 T02941044

METAR Board
Radar Display
Forecast Discussion

FOR SITUATIONAL AWARENESS. NOT TO BE USED FOR FLIGHT PLANNING PURPOSES.